sensor_id;sensor_type;location;lat;lon;timestamp;temperature;humidity
17671;DHT22;8954;48.694;8.940;2022-12-18T00:01:45;-12.60;99.90
17671;DHT22;8954;48.694;8.940;2022-12-18T00:04:24;-12.60;99.90
17671;DHT22;8954;48.694;8.940;2022-12-18T00:06:50;-12.40;99.90
17671;DHT22;8954;48.694;8.940;2022-12-18T00:09:16;-12.40;99.90
17671;DHT22;8954;48.694;8.940;2022-12-18T00:11:41;-12.50;99.90
17671;DHT22;8954;48.694;8.940;2022-12-18T00:14:09;-12.40;99.90
17671;DHT22;8954;48.694;8.940;2022-12-18T00:16:36;-12.40;99.90
17671;DHT22;8954;48.694;8.940;2022-12-18T00:19:03;-12.50;99.90
17671;DHT22;8954;48.694;8.940;2022-12-18T00:21:30;-12.50;99.90
17671;DHT22;8954;48.694;8.940;2022-12-18T00:23:56;-12.40;99.90
17671;DHT22;8954;48.694;8.940;2022-12-18T00:26:26;-12.40;99.90
17671;DHT22;8954;48.694;8.940;2022-12-18T00:28:52;-12.30;99.90
17671;DHT22;8954;48.694;8.940;2022-12-18T00:31:22;-12.40;99.90
17671;DHT22;8954;48.694;8.940;2022-12-18T00:33:48;-12.60;99.90
17671;DHT22;8954;48.694;8.940;2022-12-18T00:36:16;-12.80;99.90
17671;DHT22;8954;48.694;8.940;2022-12-18T00:38:43;-12.90;99.90
17671;DHT22;8954;48.694;8.940;2022-12-18T00:41:10;-12.90;99.90
17671;DHT22;8954;48.694;8.940;2022-12-18T00:43:37;-13.00;99.90
17671;DHT22;8954;48.694;8.940;2022-12-18T00:46:03;-12.90;99.90
17671;DHT22;8954;48.694;8.940;2022-12-18T00:48:29;-12.90;99.90
17671;DHT22;8954;48.694;8.940;2022-12-18T00:50:55;-12.80;99.90
17671;DHT22;8954;48.694;8.940;2022-12-18T00:53:21;-12.80;99.90
17671;DHT22;8954;48.694;8.940;2022-12-18T00:55:47;-12.70;99.90
17671;DHT22;8954;48.694;8.940;2022-12-18T00:58:16;-12.70;99.90
17671;DHT22;8954;48.694;8.940;2022-12-18T01:00:42;-12.80;99.90
17671;DHT22;8954;48.694;8.940;2022-12-18T01:03:13;-13.00;99.90
17671;DHT22;8954;48.694;8.940;2022-12-18T01:05:40;-13.00;99.90
17671;DHT22;8954;48.694;8.940;2022-12-18T01:08:06;-13.00;99.90
17671;DHT22;8954;48.694;8.940;2022-12-18T01:10:31;-12.90;99.90
17671;DHT22;8954;48.694;8.940;2022-12-18T01:12:57;-12.80;99.90
17671;DHT22;8954;48.694;8.940;2022-12-18T01:15:22;-12.80;99.90
17671;DHT22;8954;48.694;8.940;2022-12-18T01:17:48;-12.90;99.90
17671;DHT22;8954;48.694;8.940;2022-12-18T01:20:13;-12.80;99.90
17671;DHT22;8954;48.694;8.940;2022-12-18T01:22:39;-12.90;99.90
17671;DHT22;8954;48.694;8.940;2022-12-18T01:25:05;-12.90;99.90
17671;DHT22;8954;48.694;8.940;2022-12-18T01:27:32;-13.00;99.90
17671;DHT22;8954;48.694;8.940;2022-12-18T01:29:58;-13.10;99.90
17671;DHT22;8954;48.694;8.940;2022-12-18T01:32:24;-13.10;99.90
17671;DHT22;8954;48.694;8.940;2022-12-18T01:34:49;-13.10;99.90
17671;DHT22;8954;48.694;8.940;2022-12-18T01:37:15;-13.00;99.90
17671;DHT22;8954;48.694;8.940;2022-12-18T01:39:40;-13.00;99.90
17671;DHT22;8954;48.694;8.940;2022-12-18T01:42:12;-12.90;99.90
17671;DHT22;8954;48.694;8.940;2022-12-18T01:45:05;-12.80;99.90
17671;DHT22;8954;48.694;8.940;2022-12-18T01:47:52;-12.70;99.90
17671;DHT22;8954;48.694;8.940;2022-12-18T01:52:50;-12.40;99.90
17671;DHT22;8954;48.694;8.940;2022-12-18T01:55:19;-12.20;99.90
17671;DHT22;8954;48.694;8.940;2022-12-18T01:57:46;-12.20;99.90
17671;DHT22;8954;48.694;8.940;2022-12-18T02:00:16;-12.30;99.90
17671;DHT22;8954;48.694;8.940;2022-12-18T02:02:44;-12.30;99.90
17671;DHT22;8954;48.694;8.940;2022-12-18T02:05:10;-12.20;99.90
17671;DHT22;8954;48.694;8.940;2022-12-18T02:08:02;-12.20;99.90
17671;DHT22;8954;48.694;8.940;2022-12-18T02:10:41;-12.20;99.90
17671;DHT22;8954;48.694;8.940;2022-12-18T02:13:20;-12.10;99.90
17671;DHT22;8954;48.694;8.940;2022-12-18T02:18:25;-12.00;99.90
17671;DHT22;8954;48.694;8.940;2022-12-18T02:21:07;-12.00;99.90
17671;DHT22;8954;48.694;8.940;2022-12-18T02:23:45;-12.00;99.90
17671;DHT22;8954;48.694;8.940;2022-12-18T02:26:28;-12.10;99.90
17671;DHT22;8954;48.694;8.940;2022-12-18T02:29:03;-12.20;99.90
17671;DHT22;8954;48.694;8.940;2022-12-18T02:31:34;-12.10;99.90
17671;DHT22;8954;48.694;8.940;2022-12-18T02:34:04;-12.10;99.90
17671;DHT22;8954;48.694;8.940;2022-12-18T02:36:32;-12.10;99.90
17671;DHT22;8954;48.694;8.940;2022-12-18T02:38:59;-12.10;99.90
17671;DHT22;8954;48.694;8.940;2022-12-18T02:41:26;-12.10;99.90
17671;DHT22;8954;48.694;8.940;2022-12-18T02:44:01;-12.10;99.90
17671;DHT22;8954;48.694;8.940;2022-12-18T02:46:36;-12.10;99.90
17671;DHT22;8954;48.694;8.940;2022-12-18T02:58:01;-11.60;99.90
17671;DHT22;8954;48.694;8.940;2022-12-18T03:00:48;-11.50;99.90
17671;DHT22;8954;48.694;8.940;2022-12-18T03:06:03;-11.10;99.90
17671;DHT22;8954;48.694;8.940;2022-12-18T03:08:34;-10.90;99.90
17671;DHT22;8954;48.694;8.940;2022-12-18T03:11:06;-10.80;99.90
17671;DHT22;8954;48.694;8.940;2022-12-18T03:13:46;-10.80;99.90
17671;DHT22;8954;48.694;8.940;2022-12-18T03:16:20;-10.70;99.90
17671;DHT22;8954;48.694;8.940;2022-12-18T03:19:00;-10.70;99.90
17671;DHT22;8954;48.694;8.940;2022-12-18T03:21:31;-10.70;99.90
17671;DHT22;8954;48.694;8.940;2022-12-18T03:23:58;-10.80;99.90
17671;DHT22;8954;48.694;8.940;2022-12-18T03:26:25;-10.80;99.90
17671;DHT22;8954;48.694;8.940;2022-12-18T03:28:56;-10.70;99.90
17671;DHT22;8954;48.694;8.940;2022-12-18T03:31:23;-10.60;99.90
17671;DHT22;8954;48.694;8.940;2022-12-18T03:36:18;-10.50;99.90
17671;DHT22;8954;48.694;8.940;2022-12-18T03:38:44;-10.40;99.90
17671;DHT22;8954;48.694;8.940;2022-12-18T03:41:25;-10.20;99.90
17671;DHT22;8954;48.694;8.940;2022-12-18T03:44:23;-10.00;99.90
17671;DHT22;8954;48.694;8.940;2022-12-18T03:47:04;-9.60;99.90
17671;DHT22;8954;48.694;8.940;2022-12-18T03:54:51;-9.50;99.90
17671;DHT22;8954;48.694;8.940;2022-12-18T03:57:21;-9.30;99.90
17671;DHT22;8954;48.694;8.940;2022-12-18T03:59:50;-9.20;99.90
17671;DHT22;8954;48.694;8.940;2022-12-18T04:02:18;-9.30;99.90
17671;DHT22;8954;48.694;8.940;2022-12-18T04:04:45;-9.30;99.90
17671;DHT22;8954;48.694;8.940;2022-12-18T04:07:13;-9.20;99.90
17671;DHT22;8954;48.694;8.940;2022-12-18T04:09:40;-9.10;99.90
17671;DHT22;8954;48.694;8.940;2022-12-18T04:12:08;-8.90;99.90
17671;DHT22;8954;48.694;8.940;2022-12-18T04:14:34;-8.90;99.90
17671;DHT22;8954;48.694;8.940;2022-12-18T04:17:01;-8.90;99.90
17671;DHT22;8954;48.694;8.940;2022-12-18T04:19:30;-8.80;99.90
17671;DHT22;8954;48.694;8.940;2022-12-18T04:21:55;-8.80;99.90
17671;DHT22;8954;48.694;8.940;2022-12-18T04:24:21;-8.70;99.90
17671;DHT22;8954;48.694;8.940;2022-12-18T04:26:46;-8.70;99.90
17671;DHT22;8954;48.694;8.940;2022-12-18T04:29:12;-8.60;99.90
17671;DHT22;8954;48.694;8.940;2022-12-18T04:31:37;-8.50;99.90
17671;DHT22;8954;48.694;8.940;2022-12-18T04:34:03;-8.40;99.90
17671;DHT22;8954;48.694;8.940;2022-12-18T04:36:29;-8.30;99.90
17671;DHT22;8954;48.694;8.940;2022-12-18T04:38:55;-8.20;99.90
17671;DHT22;8954;48.694;8.940;2022-12-18T04:41:20;-8.20;99.90
17671;DHT22;8954;48.694;8.940;2022-12-18T04:43:46;-8.30;99.90
17671;DHT22;8954;48.694;8.940;2022-12-18T04:46:11;-8.10;99.90
17671;DHT22;8954;48.694;8.940;2022-12-18T04:48:37;-7.90;99.90
17671;DHT22;8954;48.694;8.940;2022-12-18T04:51:04;-7.80;99.90
17671;DHT22;8954;48.694;8.940;2022-12-18T04:53:30;-7.80;99.90
17671;DHT22;8954;48.694;8.940;2022-12-18T04:56:22;-7.70;99.90
17671;DHT22;8954;48.694;8.940;2022-12-18T04:58:48;-7.60;99.90
17671;DHT22;8954;48.694;8.940;2022-12-18T05:01:15;-7.50;99.90
17671;DHT22;8954;48.694;8.940;2022-12-18T05:03:41;-7.60;99.90
17671;DHT22;8954;48.694;8.940;2022-12-18T05:06:07;-7.50;99.90
17671;DHT22;8954;48.694;8.940;2022-12-18T05:08:33;-7.30;99.90
17671;DHT22;8954;48.694;8.940;2022-12-18T05:11:21;-7.30;99.90
17671;DHT22;8954;48.694;8.940;2022-12-18T05:13:46;-7.40;99.90
17671;DHT22;8954;48.694;8.940;2022-12-18T05:16:13;-7.30;99.90
17671;DHT22;8954;48.694;8.940;2022-12-18T05:18:39;-7.40;99.90
17671;DHT22;8954;48.694;8.940;2022-12-18T05:21:05;-7.40;99.90
17671;DHT22;8954;48.694;8.940;2022-12-18T05:23:30;-7.40;99.90
17671;DHT22;8954;48.694;8.940;2022-12-18T05:25:59;-7.20;99.90
17671;DHT22;8954;48.694;8.940;2022-12-18T05:28:27;-7.20;99.90
17671;DHT22;8954;48.694;8.940;2022-12-18T05:30:57;-7.20;99.90
17671;DHT22;8954;48.694;8.940;2022-12-18T05:33:25;-7.10;99.90
17671;DHT22;8954;48.694;8.940;2022-12-18T05:35:53;-7.00;99.90
17671;DHT22;8954;48.694;8.940;2022-12-18T05:38:19;-7.10;99.90
17671;DHT22;8954;48.694;8.940;2022-12-18T05:40:45;-6.90;99.90
17671;DHT22;8954;48.694;8.940;2022-12-18T05:43:12;-6.90;99.90
17671;DHT22;8954;48.694;8.940;2022-12-18T05:45:38;-7.00;99.90
17671;DHT22;8954;48.694;8.940;2022-12-18T05:48:04;-6.80;99.90
17671;DHT22;8954;48.694;8.940;2022-12-18T05:50:30;-6.90;99.90
17671;DHT22;8954;48.694;8.940;2022-12-18T05:52:55;-7.10;99.90
17671;DHT22;8954;48.694;8.940;2022-12-18T05:55:21;-7.10;99.90
17671;DHT22;8954;48.694;8.940;2022-12-18T05:57:47;-7.30;99.90
17671;DHT22;8954;48.694;8.940;2022-12-18T06:00:13;-7.50;99.90
17671;DHT22;8954;48.694;8.940;2022-12-18T06:02:38;-7.50;99.90
17671;DHT22;8954;48.694;8.940;2022-12-18T06:05:04;-7.40;99.90
17671;DHT22;8954;48.694;8.940;2022-12-18T06:07:30;-7.30;99.90
17671;DHT22;8954;48.694;8.940;2022-12-18T06:09:55;-7.40;99.90
17671;DHT22;8954;48.694;8.940;2022-12-18T06:12:21;-7.50;99.90
17671;DHT22;8954;48.694;8.940;2022-12-18T06:14:46;-7.70;99.90
17671;DHT22;8954;48.694;8.940;2022-12-18T06:17:12;-7.90;99.90
17671;DHT22;8954;48.694;8.940;2022-12-18T06:19:37;-8.20;99.90
17671;DHT22;8954;48.694;8.940;2022-12-18T06:22:03;-8.50;99.90
17671;DHT22;8954;48.694;8.940;2022-12-18T06:24:29;-8.70;99.90
17671;DHT22;8954;48.694;8.940;2022-12-18T06:26:55;-8.70;99.90
17671;DHT22;8954;48.694;8.940;2022-12-18T06:29:21;-8.70;99.90
17671;DHT22;8954;48.694;8.940;2022-12-18T06:31:46;-8.70;99.90
17671;DHT22;8954;48.694;8.940;2022-12-18T06:34:12;-8.90;99.90
17671;DHT22;8954;48.694;8.940;2022-12-18T06:36:37;-8.80;99.90
17671;DHT22;8954;48.694;8.940;2022-12-18T06:39:03;-8.70;99.90
17671;DHT22;8954;48.694;8.940;2022-12-18T06:41:28;-8.80;99.90
17671;DHT22;8954;48.694;8.940;2022-12-18T06:43:54;-8.90;99.90
17671;DHT22;8954;48.694;8.940;2022-12-18T06:46:20;-9.00;99.90
17671;DHT22;8954;48.694;8.940;2022-12-18T06:48:49;-8.90;99.90
17671;DHT22;8954;48.694;8.940;2022-12-18T06:51:19;-9.00;99.90
17671;DHT22;8954;48.694;8.940;2022-12-18T06:53:45;-9.10;99.90
17671;DHT22;8954;48.694;8.940;2022-12-18T06:56:11;-9.20;99.90
17671;DHT22;8954;48.694;8.940;2022-12-18T06:58:39;-9.50;99.90
17671;DHT22;8954;48.694;8.940;2022-12-18T07:01:08;-9.60;99.90
17671;DHT22;8954;48.694;8.940;2022-12-18T07:03:35;-9.60;99.90
17671;DHT22;8954;48.694;8.940;2022-12-18T07:06:00;-9.60;99.90
17671;DHT22;8954;48.694;8.940;2022-12-18T07:08:26;-9.60;99.90
17671;DHT22;8954;48.694;8.940;2022-12-18T07:10:51;-9.60;99.90
17671;DHT22;8954;48.694;8.940;2022-12-18T07:13:19;-9.60;99.90
17671;DHT22;8954;48.694;8.940;2022-12-18T07:15:44;-9.70;99.90
17671;DHT22;8954;48.694;8.940;2022-12-18T07:18:10;-9.80;99.90
17671;DHT22;8954;48.694;8.940;2022-12-18T07:20:36;-9.60;99.90
17671;DHT22;8954;48.694;8.940;2022-12-18T07:23:02;-9.50;99.90
17671;DHT22;8954;48.694;8.940;2022-12-18T07:25:28;-9.60;99.90
17671;DHT22;8954;48.694;8.940;2022-12-18T07:27:54;-9.70;99.90
17671;DHT22;8954;48.694;8.940;2022-12-18T07:30:20;-9.80;99.90
17671;DHT22;8954;48.694;8.940;2022-12-18T07:32:45;-9.70;99.90
17671;DHT22;8954;48.694;8.940;2022-12-18T07:35:11;-9.70;99.90
17671;DHT22;8954;48.694;8.940;2022-12-18T07:37:36;-9.70;99.90
17671;DHT22;8954;48.694;8.940;2022-12-18T07:40:02;-9.70;99.90
17671;DHT22;8954;48.694;8.940;2022-12-18T07:42:27;-9.80;99.90
17671;DHT22;8954;48.694;8.940;2022-12-18T07:44:56;-9.90;99.90
17671;DHT22;8954;48.694;8.940;2022-12-18T07:47:22;-9.80;99.90
17671;DHT22;8954;48.694;8.940;2022-12-18T07:49:48;-9.80;99.90
17671;DHT22;8954;48.694;8.940;2022-12-18T07:52:14;-9.70;99.90
17671;DHT22;8954;48.694;8.940;2022-12-18T07:54:40;-9.70;99.90
17671;DHT22;8954;48.694;8.940;2022-12-18T07:57:14;-9.70;99.90
17671;DHT22;8954;48.694;8.940;2022-12-18T07:59:39;-9.70;99.90
17671;DHT22;8954;48.694;8.940;2022-12-18T08:02:05;-9.60;99.90
17671;DHT22;8954;48.694;8.940;2022-12-18T08:04:31;-9.50;99.90
17671;DHT22;8954;48.694;8.940;2022-12-18T08:06:57;-9.50;99.90
17671;DHT22;8954;48.694;8.940;2022-12-18T08:09:22;-9.60;99.90
17671;DHT22;8954;48.694;8.940;2022-12-18T08:11:48;-9.60;99.90
17671;DHT22;8954;48.694;8.940;2022-12-18T08:14:13;-9.50;99.90
17671;DHT22;8954;48.694;8.940;2022-12-18T08:16:40;-9.60;99.90
17671;DHT22;8954;48.694;8.940;2022-12-18T08:19:05;-9.50;99.90
17671;DHT22;8954;48.694;8.940;2022-12-18T08:21:31;-9.40;99.90
17671;DHT22;8954;48.694;8.940;2022-12-18T08:23:59;-9.30;99.90
17671;DHT22;8954;48.694;8.940;2022-12-18T08:26:27;-9.30;99.90
17671;DHT22;8954;48.694;8.940;2022-12-18T08:28:54;-9.20;99.90
17671;DHT22;8954;48.694;8.940;2022-12-18T08:31:21;-9.10;99.90
17671;DHT22;8954;48.694;8.940;2022-12-18T08:33:49;-9.00;99.90
17671;DHT22;8954;48.694;8.940;2022-12-18T08:36:16;-8.90;99.90
17671;DHT22;8954;48.694;8.940;2022-12-18T08:38:41;-8.90;99.90
17671;DHT22;8954;48.694;8.940;2022-12-18T08:41:12;-8.70;99.90
17671;DHT22;8954;48.694;8.940;2022-12-18T08:43:38;-8.50;99.90
17671;DHT22;8954;48.694;8.940;2022-12-18T08:46:27;-8.50;99.90
17671;DHT22;8954;48.694;8.940;2022-12-18T08:48:56;-8.30;99.90
17671;DHT22;8954;48.694;8.940;2022-12-18T08:51:22;-8.30;99.90
17671;DHT22;8954;48.694;8.940;2022-12-18T08:53:48;-8.10;99.90
17671;DHT22;8954;48.694;8.940;2022-12-18T08:56:14;-8.00;99.90
17671;DHT22;8954;48.694;8.940;2022-12-18T08:58:41;-7.90;99.90
17671;DHT22;8954;48.694;8.940;2022-12-18T09:01:08;-7.80;99.90
17671;DHT22;8954;48.694;8.940;2022-12-18T09:03:35;-7.70;99.90
17671;DHT22;8954;48.694;8.940;2022-12-18T09:06:01;-7.60;99.90
17671;DHT22;8954;48.694;8.940;2022-12-18T09:08:27;-7.40;99.90
17671;DHT22;8954;48.694;8.940;2022-12-18T09:10:53;-7.30;99.90
17671;DHT22;8954;48.694;8.940;2022-12-18T09:13:19;-7.10;99.90
17671;DHT22;8954;48.694;8.940;2022-12-18T09:15:48;-7.00;99.90
17671;DHT22;8954;48.694;8.940;2022-12-18T09:18:16;-6.90;99.90
17671;DHT22;8954;48.694;8.940;2022-12-18T09:20:42;-6.70;99.90
17671;DHT22;8954;48.694;8.940;2022-12-18T09:23:07;-6.60;99.90
17671;DHT22;8954;48.694;8.940;2022-12-18T09:25:34;-6.50;99.90
17671;DHT22;8954;48.694;8.940;2022-12-18T09:28:02;-6.30;99.90
17671;DHT22;8954;48.694;8.940;2022-12-18T09:30:29;-6.20;99.90
17671;DHT22;8954;48.694;8.940;2022-12-18T09:32:55;-6.20;99.90
17671;DHT22;8954;48.694;8.940;2022-12-18T09:35:20;-6.20;99.90
17671;DHT22;8954;48.694;8.940;2022-12-18T09:37:46;-5.60;99.90
17671;DHT22;8954;48.694;8.940;2022-12-18T09:40:21;-4.30;99.90
17671;DHT22;8954;48.694;8.940;2022-12-18T09:43:01;-2.50;99.90
17671;DHT22;8954;48.694;8.940;2022-12-18T09:45:31;-0.40;99.90
17671;DHT22;8954;48.694;8.940;2022-12-18T09:48:04;1.50;99.90
17671;DHT22;8954;48.694;8.940;2022-12-18T09:50:34;3.60;99.90
17671;DHT22;8954;48.694;8.940;2022-12-18T09:53:05;4.30;97.80
17671;DHT22;8954;48.694;8.940;2022-12-18T10:00:44;9.70;75.70
17671;DHT22;8954;48.694;8.940;2022-12-18T10:03:13;8.80;75.00
17671;DHT22;8954;48.694;8.940;2022-12-18T10:06:01;10.60;71.60
17671;DHT22;8954;48.694;8.940;2022-12-18T10:14:37;11.90;64.70
17671;DHT22;8954;48.694;8.940;2022-12-18T10:19:55;13.00;60.20
17671;DHT22;8954;48.694;8.940;2022-12-18T10:22:47;11.40;62.20
17671;DHT22;8954;48.694;8.940;2022-12-18T10:28:32;12.60;62.00
17671;DHT22;8954;48.694;8.940;2022-12-18T10:31:00;11.40;64.60
17671;DHT22;8954;48.694;8.940;2022-12-18T10:33:33;12.40;60.60
17671;DHT22;8954;48.694;8.940;2022-12-18T10:36:00;12.50;60.80
17671;DHT22;8954;48.694;8.940;2022-12-18T10:38:31;12.40;60.80
17671;DHT22;8954;48.694;8.940;2022-12-18T10:43:35;11.30;63.40
17671;DHT22;8954;48.694;8.940;2022-12-18T10:51:06;11.10;63.10
17671;DHT22;8954;48.694;8.940;2022-12-18T10:53:34;10.00;65.00
17671;DHT22;8954;48.694;8.940;2022-12-18T10:56:03;9.60;66.20
17671;DHT22;8954;48.694;8.940;2022-12-18T10:58:37;9.20;68.90
17671;DHT22;8954;48.694;8.940;2022-12-18T11:01:17;11.40;63.50
17671;DHT22;8954;48.694;8.940;2022-12-18T11:06:14;12.00;62.30
17671;DHT22;8954;48.694;8.940;2022-12-18T11:08:41;11.60;63.20
17671;DHT22;8954;48.694;8.940;2022-12-18T11:11:20;12.10;61.50
17671;DHT22;8954;48.694;8.940;2022-12-18T11:16:19;11.40;62.50
17671;DHT22;8954;48.694;8.940;2022-12-18T11:18:45;11.60;63.10
17671;DHT22;8954;48.694;8.940;2022-12-18T11:21:12;11.60;64.40
17671;DHT22;8954;48.694;8.940;2022-12-18T11:23:47;12.30;64.10
17671;DHT22;8954;48.694;8.940;2022-12-18T11:26:14;12.70;61.90
17671;DHT22;8954;48.694;8.940;2022-12-18T11:28:47;12.50;62.10
17671;DHT22;8954;48.694;8.940;2022-12-18T11:31:28;13.30;60.00
17671;DHT22;8954;48.694;8.940;2022-12-18T11:36:33;13.00;61.70
17671;DHT22;8954;48.694;8.940;2022-12-18T11:39:07;12.00;62.80
17671;DHT22;8954;48.694;8.940;2022-12-18T11:41:41;12.00;62.70
17671;DHT22;8954;48.694;8.940;2022-12-18T11:44:42;11.90;64.40
17671;DHT22;8954;48.694;8.940;2022-12-18T11:47:33;11.50;64.30
17671;DHT22;8954;48.694;8.940;2022-12-18T11:50:16;11.20;66.00
17671;DHT22;8954;48.694;8.940;2022-12-18T11:52:42;11.40;65.00
17671;DHT22;8954;48.694;8.940;2022-12-18T11:55:18;11.00;66.00
17671;DHT22;8954;48.694;8.940;2022-12-18T12:00:21;10.70;68.10
17671;DHT22;8954;48.694;8.940;2022-12-18T12:11:35;7.70;74.40
17671;DHT22;8954;48.694;8.940;2022-12-18T12:19:52;7.20;75.80
17671;DHT22;8954;48.694;8.940;2022-12-18T12:30:44;4.70;84.10
17671;DHT22;8954;48.694;8.940;2022-12-18T12:39:19;4.20;87.70
17671;DHT22;8954;48.694;8.940;2022-12-18T12:41:46;4.20;89.50
17671;DHT22;8954;48.694;8.940;2022-12-18T12:44:44;4.00;89.70
17671;DHT22;8954;48.694;8.940;2022-12-18T12:47:19;4.10;90.00
17671;DHT22;8954;48.694;8.940;2022-12-18T12:49:47;4.00;90.50
17671;DHT22;8954;48.694;8.940;2022-12-18T12:52:25;4.10;90.40
17671;DHT22;8954;48.694;8.940;2022-12-18T12:54:53;4.10;90.30
17671;DHT22;8954;48.694;8.940;2022-12-18T12:57:29;4.00;90.30
17671;DHT22;8954;48.694;8.940;2022-12-18T13:00:16;3.80;90.50
17671;DHT22;8954;48.694;8.940;2022-12-18T13:05:45;4.00;90.60
17671;DHT22;8954;48.694;8.940;2022-12-18T13:08:29;3.60;91.20
17671;DHT22;8954;48.694;8.940;2022-12-18T13:10:56;3.60;91.50
17671;DHT22;8954;48.694;8.940;2022-12-18T13:13:55;3.70;91.70
17671;DHT22;8954;48.694;8.940;2022-12-18T13:16:25;3.70;91.50
17671;DHT22;8954;48.694;8.940;2022-12-18T13:18:56;3.30;92.30
17671;DHT22;8954;48.694;8.940;2022-12-18T13:21:34;3.00;92.90
17671;DHT22;8954;48.694;8.940;2022-12-18T13:24:32;2.90;93.50
17671;DHT22;8954;48.694;8.940;2022-12-18T13:26:58;3.20;93.20
17671;DHT22;8954;48.694;8.940;2022-12-18T13:32:20;2.90;93.80
17671;DHT22;8954;48.694;8.940;2022-12-18T13:34:46;2.50;94.50
17671;DHT22;8954;48.694;8.940;2022-12-18T13:37:51;2.20;95.40
17671;DHT22;8954;48.694;8.940;2022-12-18T13:48:26;1.50;97.90
17671;DHT22;8954;48.694;8.940;2022-12-18T13:50:56;1.20;98.80
17671;DHT22;8954;48.694;8.940;2022-12-18T13:53:27;1.00;99.50
17671;DHT22;8954;48.694;8.940;2022-12-18T13:55:54;0.90;99.90
17671;DHT22;8954;48.694;8.940;2022-12-18T13:58:20;0.80;99.90
17671;DHT22;8954;48.694;8.940;2022-12-18T14:00:46;1.00;99.90
17671;DHT22;8954;48.694;8.940;2022-12-18T14:03:19;0.80;99.90
17671;DHT22;8954;48.694;8.940;2022-12-18T14:05:45;0.60;99.90
17671;DHT22;8954;48.694;8.940;2022-12-18T14:08:14;0.50;99.90
17671;DHT22;8954;48.694;8.940;2022-12-18T14:10:41;0.30;99.90
17671;DHT22;8954;48.694;8.940;2022-12-18T14:13:10;0.10;99.90
17671;DHT22;8954;48.694;8.940;2022-12-18T14:15:41;0.00;99.90
17671;DHT22;8954;48.694;8.940;2022-12-18T14:18:20;-0.20;99.90
17671;DHT22;8954;48.694;8.940;2022-12-18T14:20:47;-0.20;99.90
17671;DHT22;8954;48.694;8.940;2022-12-18T14:25:58;-0.40;99.90
17671;DHT22;8954;48.694;8.940;2022-12-18T14:28:24;-0.40;99.90
17671;DHT22;8954;48.694;8.940;2022-12-18T14:30:51;-0.40;99.90
17671;DHT22;8954;48.694;8.940;2022-12-18T14:33:25;-0.50;99.90
17671;DHT22;8954;48.694;8.940;2022-12-18T14:36:03;-0.60;99.90
17671;DHT22;8954;48.694;8.940;2022-12-18T14:38:34;-0.50;99.90
17671;DHT22;8954;48.694;8.940;2022-12-18T14:41:11;-0.50;99.90
17671;DHT22;8954;48.694;8.940;2022-12-18T14:43:39;-0.60;99.90
17671;DHT22;8954;48.694;8.940;2022-12-18T14:46:29;-0.80;99.90
17671;DHT22;8954;48.694;8.940;2022-12-18T14:51:49;-1.30;99.90
17671;DHT22;8954;48.694;8.940;2022-12-18T14:54:17;-1.40;99.90
17671;DHT22;8954;48.694;8.940;2022-12-18T14:56:49;-1.50;99.90
17671;DHT22;8954;48.694;8.940;2022-12-18T14:59:19;-1.60;99.90
17671;DHT22;8954;48.694;8.940;2022-12-18T15:02:00;-1.70;99.90
17671;DHT22;8954;48.694;8.940;2022-12-18T15:04:33;-1.80;99.90
17671;DHT22;8954;48.694;8.940;2022-12-18T15:07:23;-2.10;99.90
17671;DHT22;8954;48.694;8.940;2022-12-18T15:12:37;-2.40;99.90
17671;DHT22;8954;48.694;8.940;2022-12-18T15:15:03;-2.50;99.90
17671;DHT22;8954;48.694;8.940;2022-12-18T15:17:29;-2.60;99.90
17671;DHT22;8954;48.694;8.940;2022-12-18T15:20:03;-2.80;99.90
17671;DHT22;8954;48.694;8.940;2022-12-18T15:22:35;-2.90;99.90
17671;DHT22;8954;48.694;8.940;2022-12-18T15:25:03;-3.00;99.90
17671;DHT22;8954;48.694;8.940;2022-12-18T15:27:36;-3.10;99.90
17671;DHT22;8954;48.694;8.940;2022-12-18T15:32:38;-3.00;99.90
17671;DHT22;8954;48.694;8.940;2022-12-18T15:35:12;-3.20;99.90
17671;DHT22;8954;48.694;8.940;2022-12-18T15:37:38;-3.40;99.90
17671;DHT22;8954;48.694;8.940;2022-12-18T15:40:04;-3.50;99.90
17671;DHT22;8954;48.694;8.940;2022-12-18T15:42:30;-3.60;99.90
17671;DHT22;8954;48.694;8.940;2022-12-18T15:45:14;-3.70;99.90
17671;DHT22;8954;48.694;8.940;2022-12-18T15:47:40;-3.70;99.90
17671;DHT22;8954;48.694;8.940;2022-12-18T15:50:09;-3.80;99.90
17671;DHT22;8954;48.694;8.940;2022-12-18T15:52:54;-3.90;99.90
17671;DHT22;8954;48.694;8.940;2022-12-18T15:55:22;-3.80;99.90
17671;DHT22;8954;48.694;8.940;2022-12-18T15:58:09;-3.70;99.90
17671;DHT22;8954;48.694;8.940;2022-12-18T16:00:37;-3.90;99.90
17671;DHT22;8954;48.694;8.940;2022-12-18T16:03:04;-3.90;99.90
17671;DHT22;8954;48.694;8.940;2022-12-18T16:05:31;-4.00;99.90
17671;DHT22;8954;48.694;8.940;2022-12-18T16:07:57;-4.10;99.90
17671;DHT22;8954;48.694;8.940;2022-12-18T16:10:24;-4.20;99.90
17671;DHT22;8954;48.694;8.940;2022-12-18T16:12:50;-4.20;99.90
17671;DHT22;8954;48.694;8.940;2022-12-18T16:15:16;-4.20;99.90
17671;DHT22;8954;48.694;8.940;2022-12-18T16:17:42;-4.20;99.90
17671;DHT22;8954;48.694;8.940;2022-12-18T16:20:16;-4.20;99.90
17671;DHT22;8954;48.694;8.940;2022-12-18T16:22:43;-4.20;99.90
17671;DHT22;8954;48.694;8.940;2022-12-18T16:25:18;-4.10;99.90
17671;DHT22;8954;48.694;8.940;2022-12-18T16:27:44;-4.10;99.90
17671;DHT22;8954;48.694;8.940;2022-12-18T16:30:15;-4.10;99.90
17671;DHT22;8954;48.694;8.940;2022-12-18T16:32:41;-4.20;99.90
17671;DHT22;8954;48.694;8.940;2022-12-18T16:35:09;-4.20;99.90
17671;DHT22;8954;48.694;8.940;2022-12-18T16:37:35;-4.20;99.90
17671;DHT22;8954;48.694;8.940;2022-12-18T16:40:00;-4.10;99.90
17671;DHT22;8954;48.694;8.940;2022-12-18T16:42:26;-4.10;99.90
17671;DHT22;8954;48.694;8.940;2022-12-18T16:44:52;-4.10;99.90
17671;DHT22;8954;48.694;8.940;2022-12-18T16:47:18;-4.10;99.90
17671;DHT22;8954;48.694;8.940;2022-12-18T16:49:43;-4.00;99.90
17671;DHT22;8954;48.694;8.940;2022-12-18T16:52:10;-4.00;99.90
17671;DHT22;8954;48.694;8.940;2022-12-18T16:54:35;-4.00;99.90
17671;DHT22;8954;48.694;8.940;2022-12-18T16:57:01;-4.00;99.90
17671;DHT22;8954;48.694;8.940;2022-12-18T16:59:27;-3.90;99.90
17671;DHT22;8954;48.694;8.940;2022-12-18T17:01:54;-3.80;99.90
17671;DHT22;8954;48.694;8.940;2022-12-18T17:04:20;-3.80;99.90
17671;DHT22;8954;48.694;8.940;2022-12-18T17:06:45;-3.80;99.90
17671;DHT22;8954;48.694;8.940;2022-12-18T17:09:17;-3.80;99.90
17671;DHT22;8954;48.694;8.940;2022-12-18T17:11:47;-3.90;99.90
17671;DHT22;8954;48.694;8.940;2022-12-18T17:14:16;-3.90;99.90
17671;DHT22;8954;48.694;8.940;2022-12-18T17:16:42;-3.90;99.90
17671;DHT22;8954;48.694;8.940;2022-12-18T17:19:08;-3.80;99.90
17671;DHT22;8954;48.694;8.940;2022-12-18T17:21:33;-3.80;99.90
17671;DHT22;8954;48.694;8.940;2022-12-18T17:24:00;-3.80;99.90
17671;DHT22;8954;48.694;8.940;2022-12-18T17:26:26;-3.80;99.90
17671;DHT22;8954;48.694;8.940;2022-12-18T17:28:56;-3.80;99.90
17671;DHT22;8954;48.694;8.940;2022-12-18T17:31:23;-3.80;99.90
17671;DHT22;8954;48.694;8.940;2022-12-18T17:33:49;-3.70;99.90
17671;DHT22;8954;48.694;8.940;2022-12-18T17:36:15;-3.70;99.90
17671;DHT22;8954;48.694;8.940;2022-12-18T17:38:42;-3.70;99.90
17671;DHT22;8954;48.694;8.940;2022-12-18T17:41:10;-3.70;99.90
17671;DHT22;8954;48.694;8.940;2022-12-18T17:43:36;-3.80;99.90
17671;DHT22;8954;48.694;8.940;2022-12-18T17:46:10;-3.70;99.90
17671;DHT22;8954;48.694;8.940;2022-12-18T17:48:36;-3.70;99.90
17671;DHT22;8954;48.694;8.940;2022-12-18T17:51:03;-3.70;99.90
17671;DHT22;8954;48.694;8.940;2022-12-18T17:53:29;-3.70;99.90